Time;durP1;ratioP1;P1;durP2;ratioP2;P2;SDS_P1;SDS_P2;PMS_P1;PMS_P2;Temp;Humidity;BMP_temperature;BMP_pressure;BME280_temperature;BME280_humidity;BME280_pressure;Samples;Min_cycle;Max_cycle;Signal;HPM_P1;HPM_P2
2022/06/04 00:00:51;;;;;;;3.70;2.00;;;;;;;11.97;100.00;101424.70;1708452;82;20984;-45
2022/06/04 00:03:19;;;;;;;3.08;2.12;;;;;;;11.93;100.00;101423.88;1729353;82;20992;-45
2022/06/04 00:05:50;;;;;;;4.25;1.90;;;;;;;11.89;100.00;101426.51;1718416;82;21448;-45
2022/06/04 00:08:19;;;;;;;6.35;2.22;;;;;;;11.84;100.00;101424.39;1735523;82;21692;-45
2022/06/04 00:16:25;;;;;;;2.37;1.85;;;;;;;11.69;100.00;101420.19;1706485;82;21195;-45
2022/06/04 00:18:51;;;;;;;5.53;2.35;;;;;;;11.65;100.00;101421.94;1712553;82;21509;-44
2022/06/04 00:21:19;;;;;;;4.65;2.40;;;;;;;11.63;100.00;101423.69;1715271;82;20932;-45
2022/06/04 00:23:46;;;;;;;5.50;1.90;;;;;;;11.61;100.00;101414.60;1729010;82;20929;-45
2022/06/04 00:26:16;;;;;;;5.35;1.95;;;;;;;11.59;100.00;101412.91;1741536;82;20956;-44
2022/06/04 00:28:46;;;;;;;4.50;1.90;;;;;;;11.55;100.00;101413.81;1743577;82;21374;-44
2022/06/04 00:31:11;;;;;;;3.50;1.85;;;;;;;11.52;100.00;101413.84;1735522;82;20999;-44
2022/06/04 00:33:39;;;;;;;2.02;1.90;;;;;;;11.50;100.00;101412.13;1728682;80;20992;-44
2022/06/04 00:36:06;;;;;;;2.67;2.22;;;;;;;11.49;100.00;101406.93;1723434;82;20928;-44
2022/06/04 00:38:34;;;;;;;3.20;2.10;;;;;;;11.50;100.00;101406.05;1743501;82;21012;-44
2022/06/04 00:41:28;;;;;;;6.10;2.67;;;;;;;11.50;100.00;101404.77;1734133;82;22295;-44
2022/06/04 00:44:04;;;;;;;2.65;2.10;;;;;;;11.49;100.00;101409.11;1724142;82;20988;-44
2022/06/04 00:46:54;;;;;;;5.20;1.93;;;;;;;11.47;100.00;101406.92;1743796;81;20964;-44
2022/06/04 00:49:21;;;;;;;4.62;2.12;;;;;;;11.50;100.00;101406.05;1742609;81;20893;-44
2022/06/04 00:51:50;;;;;;;3.52;2.10;;;;;;;11.50;100.00;101404.77;1733245;81;21092;-44
2022/06/04 00:54:16;;;;;;;3.65;2.10;;;;;;;11.47;100.00;101407.38;1743300;81;21333;-44
2022/06/04 00:57:27;;;;;;;3.02;2.05;;;;;;;11.44;100.00;101406.95;1741047;82;21024;-44
2022/06/04 01:00:17;;;;;;;1.80;1.70;;;;;;;11.43;100.00;101405.69;1708623;82;21036;-44
2022/06/04 01:03:09;;;;;;;3.65;1.87;;;;;;;11.40;100.00;101405.71;1686963;83;20944;-44
2022/06/04 01:06:13;;;;;;;2.70;1.60;;;;;;;11.38;100.00;101407.45;1713947;83;21483;-44
2022/06/04 01:09:03;;;;;;;3.92;1.75;;;;;;;11.35;100.00;101409.62;1713719;83;21269;-44
2022/06/04 01:12:09;;;;;;;2.75;2.10;;;;;;;11.32;100.00;101413.08;1717796;82;21486;-44
2022/06/04 01:14:59;;;;;;;;;;;;;;;11.28;100.00;101397.58;1731869;81;20989;-44
2022/06/04 01:17:44;;;;;;;2.12;1.85;;;;;;;11.25;100.00;101407.52;1741177;81;20429;-44
2022/06/04 01:20:48;;;;;;;5.72;2.12;;;;;;;11.21;100.00;101405.36;1735721;82;20935;-45
2022/06/04 01:24:04;;;;;;;2.55;2.05;;;;;;;11.18;100.00;101405.39;1695158;83;21199;-44
2022/06/04 01:27:14;;;;;;;1.80;1.70;;;;;;;11.15;100.00;101394.20;1709029;82;21010;-45
2022/06/04 01:30:11;;;;;;;2.20;2.00;;;;;;;11.12;100.00;101392.47;1710714;82;20987;-45
2022/06/04 01:32:46;;;;;;;8.30;1.95;;;;;;;11.08;100.00;101390.77;1664417;84;20999;-44
2022/06/04 01:35:20;;;;;;;6.20;2.00;;;;;;;11.07;100.00;101389.05;1677736;82;20990;-44
2022/06/04 01:37:58;;;;;;;1.87;1.77;;;;;;;11.04;100.00;101386.03;1655234;84;21178;-44
2022/06/04 01:43:22;;;;;;;;;;;;;;;11.03;100.00;101387.36;1714617;82;21564;-44
2022/06/04 01:45:49;;;;;;;2.50;2.33;;;;;;;11.03;100.00;101380.88;1710960;82;20120;-44
2022/06/04 01:48:15;;;;;;;1.87;1.60;;;;;;;11.02;100.00;101381.75;1660403;83;20955;-44
2022/06/04 01:50:47;;;;;;;3.65;2.10;;;;;;;11.02;100.00;101377.86;1716626;82;21477;-44
2022/06/04 01:53:15;;;;;;;2.75;2.45;;;;;;;11.01;100.00;101382.16;1728699;82;21063;-44
2022/06/04 01:55:51;;;;;;;4.85;1.90;;;;;;;11.02;100.00;101377.86;1711213;83;21014;-44
2022/06/04 01:58:21;;;;;;;4.17;1.90;;;;;;;11.03;100.00;101389.95;1712678;82;28668;-44
2022/06/04 02:00:56;;;;;;;1.90;1.80;;;;;;;11.03;100.00;101384.31;1729669;82;21228;-44
2022/06/04 02:03:47;;;;;;;9.33;1.85;;;;;;;11.06;100.00;101384.74;1710836;82;21301;-44
2022/06/04 02:06:27;;;;;;;1.95;1.70;;;;;;;11.12;100.00;101387.74;1703274;83;21015;-44
2022/06/04 02:09:00;;;;;;;1.75;1.70;;;;;;;11.17;100.00;101389.87;1710412;83;20939;-45
2022/06/04 02:11:27;;;;;;;5.28;2.05;;;;;;;11.20;100.00;101388.09;1716847;81;20983;-45
2022/06/04 02:13:58;;;;;;;9.55;1.92;;;;;;;11.19;100.00;101385.08;1666463;82;21044;-44
2022/06/04 02:16:39;;;;;;;2.12;2.02;;;;;;;11.22;100.00;101385.51;1684602;82;21202;-45
2022/06/04 02:19:06;;;;;;;1.87;1.67;;;;;;;11.26;100.00;101390.25;1707586;82;20984;-45
2022/06/04 02:21:33;;;;;;;3.72;1.60;;;;;;;11.26;100.00;101393.69;1705627;84;20886;-45
2022/06/04 02:24:00;;;;;;;2.70;1.82;;;;;;;11.28;100.00;101393.69;1706124;82;20972;-44
2022/06/04 02:26:26;;;;;;;2.42;1.60;;;;;;;11.27;100.00;101391.97;1718250;82;20980;-44
2022/06/04 02:28:56;;;;;;;4.62;1.75;;;;;;;11.31;100.00;101396.25;1706408;81;21368;-45
2022/06/04 02:31:50;;;;;;;1.90;1.42;;;;;;;11.35;100.00;101396.66;1685913;84;21029;-45
2022/06/04 02:34:37;;;;;;;5.20;1.80;;;;;;;11.38;100.00;101390.60;1705822;82;20905;-45
2022/06/04 02:37:24;;;;;;;7.00;1.80;;;;;;;11.39;100.00;101395.76;1728790;82;20976;-45
2022/06/04 02:40:19;;;;;;;1.57;1.57;;;;;;;11.41;100.00;101397.06;1705862;84;21031;-44
2022/06/04 02:43:00;;;;;;;5.75;2.08;;;;;;;11.46;100.00;101390.10;1705842;84;22219;-45
2022/06/04 02:45:34;;;;;;;3.80;2.55;;;;;;;11.53;100.00;101391.77;1712868;82;21004;-45
2022/06/04 02:48:12;;;;;;;1.87;1.60;;;;;;;11.60;100.00;101388.25;1735159;82;20901;-44
2022/06/04 02:50:49;;;;;;;1.95;1.72;;;;;;;11.70;100.00;101393.37;1729452;81;21018;-45
2022/06/04 02:53:17;;;;;;;4.35;1.90;;;;;;;11.82;100.00;101396.31;1705913;84;21597;-44
2022/06/04 02:55:59;;;;;;;3.22;1.67;;;;;;;11.90;100.00;101393.20;1705723;83;21063;-45
2022/06/04 02:58:26;;;;;;;5.35;1.45;;;;;;;11.98;100.00;101391.39;1705987;82;21035;-45
2022/06/04 03:00:54;;;;;;;4.70;1.80;;;;;;;12.07;100.00;101391.77;1705925;83;21028;-45
2022/06/04 03:03:21;;;;;;;1.30;1.20;;;;;;;12.14;100.00;101389.98;1685704;83;20977;-45
2022/06/04 03:05:57;;;;;;;2.22;1.37;;;;;;;12.21;100.00;101392.51;1705881;83;20980;-45
2022/06/04 03:08:26;;;;;;;3.10;1.50;;;;;;;12.30;100.00;101391.55;1705805;83;21062;-45
2022/06/04 03:10:54;;;;;;;1.27;1.27;;;;;;;12.42;100.00;101390.56;1705645;83;20949;-45
2022/06/04 03:13:20;;;;;;;3.42;1.10;;;;;;;12.57;100.00;101392.55;1706036;84;21526;-45
2022/06/04 03:15:47;;;;;;;3.83;1.50;;;;;;;12.69;100.00;101383.75;1705746;83;20928;-45
2022/06/04 03:18:15;;;;;;;3.50;1.10;;;;;;;12.80;100.00;101377.98;1707646;82;20937;-45
2022/06/04 03:20:42;;;;;;;2.75;1.20;;;;;;;12.88;100.00;101365.75;1718397;83;22076;-45
2022/06/04 03:23:09;;;;;;;2.27;1.62;;;;;;;12.98;100.00;101362.59;1719411;82;20992;-45
2022/06/04 03:25:38;;;;;;;1.40;1.30;;;;;;;13.09;100.00;101370.23;1719590;83;21028;-45
2022/06/04 03:28:06;;;;;;;6.33;1.40;;;;;;;13.22;100.00;101378.25;1742665;82;21063;-45
2022/06/04 03:30:34;;;;;;;5.85;1.30;;;;;;;13.34;100.00;101368.11;1746219;82;21474;-45
2022/06/04 03:33:02;;;;;;;1.77;1.27;;;;;;;13.48;100.00;101359.28;1749099;82;21497;-45
2022/06/04 03:35:29;;;;;;;3.35;1.15;;;;;;;13.60;100.00;101365.56;1739647;82;20932;-45
2022/06/04 03:37:55;;;;;;;1.65;1.15;;;;;;;13.74;100.00;101364.48;1733462;82;21038;-45
2022/06/04 03:40:23;;;;;;;2.47;1.20;;;;;;;13.90;99.86;101363.77;1716447;83;21007;-45
2022/06/04 03:42:49;;;;;;;3.33;1.10;;;;;;;14.07;99.13;101360.42;1719513;82;21596;-45
2022/06/04 03:45:17;;;;;;;1.72;1.20;;;;;;;14.32;98.16;101362.56;1719409;83;21053;-45
2022/06/04 03:47:45;;;;;;;6.17;1.65;;;;;;;14.58;96.43;101361.60;1719523;82;20948;-45
2022/06/04 03:50:15;;;;;;;10.30;1.22;;;;;;;14.88;95.22;101367.08;1720119;82;20948;-45
2022/06/04 03:52:44;;;;;;;4.15;1.07;;;;;;;15.21;92.90;101358.09;1737983;82;21008;-45
2022/06/04 03:55:11;;;;;;;2.47;1.35;;;;;;;15.52;90.73;101356.88;1733621;82;20940;-45
2022/06/04 03:57:44;;;;;;;4.80;1.20;;;;;;;15.79;89.26;101360.16;1746341;82;21145;-46
2022/06/04 04:00:28;;;;;;;1.60;1.15;;;;;;;16.02;86.60;101351.73;1740949;82;21011;-45
2022/06/04 04:03:02;;;;;;;1.87;1.50;;;;;;;16.19;84.42;101353.91;1719532;83;21628;-45
2022/06/04 04:05:35;;;;;;;1.27;1.17;;;;;;;16.37;83.95;101355.14;1719444;82;21557;-45
2022/06/04 04:08:06;;;;;;;3.87;1.20;;;;;;;16.51;82.95;101358.66;1719579;82;21185;-46
2022/06/04 04:10:34;;;;;;;1.15;1.12;;;;;;;16.60;80.88;101348.39;1719298;83;21242;-46
2022/06/04 04:13:00;;;;;;;5.15;1.12;;;;;;;16.65;79.95;101351.72;1735874;82;20925;-45
2022/06/04 04:15:28;;;;;;;4.05;1.40;;;;;;;16.69;79.51;101358.16;1749387;82;21019;-46
2022/06/04 04:17:55;;;;;;;4.95;1.47;;;;;;;16.78;79.56;101364.41;1749306;81;21008;-46
2022/06/04 04:20:25;;;;;;;7.10;1.07;;;;;;;16.84;79.04;101353.78;1749482;81;21490;-46
2022/06/04 04:22:53;;;;;;;3.70;1.17;;;;;;;16.96;77.55;101355.17;1726997;82;21292;-46
2022/06/04 04:25:21;;;;;;;2.50;1.02;;;;;;;17.11;77.33;101349.94;1722223;82;20931;-45
2022/06/04 04:27:49;;;;;;;1.30;1.20;;;;;;;17.22;76.20;101349.59;1725302;82;20980;-46
2022/06/04 04:30:19;;;;;;;3.15;1.22;;;;;;;17.31;75.57;101354.98;1748924;82;20893;-46
2022/06/04 04:32:46;;;;;;;11.15;1.32;;;;;;;17.40;75.88;101352.06;1749421;82;21463;-46
2022/06/04 04:35:17;;;;;;;3.77;1.10;;;;;;;17.52;75.53;101346.41;1747298;82;21145;-46
2022/06/04 04:37:44;;;;;;;1.20;0.82;;;;;;;17.69;75.91;101350.22;1734823;82;21007;-46
2022/06/04 04:40:14;;;;;;;7.62;1.10;;;;;;;17.91;74.65;101345.55;1731534;82;20885;-46
2022/06/04 04:42:42;;;;;;;7.53;1.07;;;;;;;18.09;73.34;101351.48;1748934;81;20948;-46
2022/06/04 04:45:10;;;;;;;6.90;1.30;;;;;;;18.21;72.79;101353.25;1749089;82;21613;-46
2022/06/04 04:47:40;;;;;;;2.60;1.20;;;;;;;18.32;73.71;101347.18;1749246;82;21508;-46
2022/06/04 04:50:14;;;;;;;4.65;1.30;;;;;;;18.58;73.08;101349.72;1748385;82;20935;-46
2022/06/04 04:52:42;;;;;;;4.83;1.10;;;;;;;18.74;71.93;101346.05;1745000;82;21573;-46
2022/06/04 04:55:09;;;;;;;4.47;1.00;;;;;;;18.84;71.27;101352.67;1721705;82;20967;-46
2022/06/04 04:57:35;;;;;;;2.15;1.20;;;;;;;19.04;69.67;101353.21;1736178;82;20955;-46
2022/06/04 05:00:06;;;;;;;2.75;1.10;;;;;;;19.12;70.08;101355.98;1719294;82;21106;-46
2022/06/04 05:02:33;;;;;;;3.17;1.07;;;;;;;19.29;70.10;101356.60;1744407;82;20952;-46
2022/06/04 05:05:01;;;;;;;9.15;1.20;;;;;;;19.51;68.58;101352.17;1741895;81;20984;-46
2022/06/04 05:07:28;;;;;;;6.50;1.20;;;;;;;19.61;67.58;101348.70;1720259;83;20948;-45
2022/06/04 05:09:55;;;;;;;3.17;1.40;;;;;;;19.68;66.59;101342.27;1722530;82;22519;-47
2022/06/04 05:12:22;;;;;;;1.85;1.27;;;;;;;19.75;65.92;101344.17;1733233;82;21131;-46
2022/06/04 05:14:50;;;;;;;1.37;1.10;;;;;;;19.89;65.21;101346.67;1749781;82;20948;-46
2022/06/04 05:17:17;;;;;;;5.33;1.17;;;;;;;19.97;65.54;101347.21;1729704;82;20920;-46
2022/06/04 05:19:43;;;;;;;2.65;0.82;;;;;;;20.15;63.59;101351.27;1738478;81;20996;-47
2022/06/04 05:22:10;;;;;;;8.40;1.20;;;;;;;20.16;64.12;101337.20;1735229;82;21557;-46
2022/06/04 05:24:38;;;;;;;4.37;1.42;;;;;;;20.22;63.87;101342.18;1731437;82;21018;-46
2022/06/04 05:27:05;;;;;;;1.52;1.00;;;;;;;20.25;62.90;101338.09;1735726;82;20921;-46
2022/06/04 05:29:34;;;;;;;1.50;1.20;;;;;;;20.18;63.63;101340.14;1736735;81;20988;-46
2022/06/04 05:32:02;;;;;;;2.65;1.20;;;;;;;20.24;63.86;101339.02;1707384;82;20972;-46
2022/06/04 05:34:29;;;;;;;5.53;1.17;;;;;;;20.32;63.57;101350.03;1706953;82;21044;-47
2022/06/04 05:36:56;;;;;;;1.67;0.90;;;;;;;20.44;62.94;101352.56;1706919;82;21385;-46
2022/06/04 05:39:23;;;;;;;1.87;1.05;;;;;;;20.61;62.75;101351.80;1706897;82;21494;-47
2022/06/04 05:41:50;;;;;;;0.95;0.90;;;;;;;20.65;61.45;101350.73;1723529;82;20996;-47
2022/06/04 05:44:18;;;;;;;2.95;1.10;;;;;;;20.77;61.96;101349.75;1735405;82;20921;-47
2022/06/04 05:46:46;;;;;;;0.80;0.80;;;;;;;20.95;61.11;101351.54;1735711;82;20948;-46
2022/06/04 05:49:13;;;;;;;4.35;1.00;;;;;;;21.13;60.86;101346.31;1735944;82;21205;-46
2022/06/04 05:51:43;;;;;;;0.80;0.78;;;;;;;21.24;58.63;101338.73;1717341;81;20929;-46
2022/06/04 05:54:10;;;;;;;1.20;0.90;;;;;;;21.31;60.53;101346.31;1735760;81;21000;-46
2022/06/04 05:56:40;;;;;;;1.57;1.12;;;;;;;21.52;59.85;101338.66;1725030;82;20968;-46
2022/06/04 05:59:10;;;;;;;3.80;1.40;;;;;;;21.74;58.82;101342.86;1706488;83;21335;-46
2022/06/04 06:01:39;;;;;;;3.72;1.10;;;;;;;21.83;58.31;101338.91;1706552;84;21164;-46
2022/06/04 06:04:07;;;;;;;2.55;1.10;;;;;;;21.85;54.92;101338.80;1706489;83;20984;-46
2022/06/04 06:06:36;;;;;;;4.20;1.32;;;;;;;21.73;56.05;101330.62;1706418;83;20901;-46
2022/06/04 06:09:05;;;;;;;3.95;1.12;;;;;;;21.78;56.78;101331.71;1720424;82;21533;-46
2022/06/04 06:11:33;;;;;;;1.00;1.00;;;;;;;21.89;57.43;101333.30;1715465;82;20921;-46
2022/06/04 06:14:00;;;;;;;1.02;0.93;;;;;;;22.00;56.05;101335.86;1714433;82;21332;-46
2022/06/04 06:16:31;;;;;;;4.00;0.98;;;;;;;21.90;55.62;101329.73;1706783;82;20913;-46
2022/06/04 06:18:58;;;;;;;2.22;1.07;;;;;;;21.90;54.43;101327.09;1706659;82;20901;-46
2022/06/04 06:21:29;;;;;;;1.85;1.10;;;;;;;21.87;54.03;101337.80;1719706;82;21466;-46
2022/06/04 06:23:56;;;;;;;4.55;1.12;;;;;;;21.78;54.38;101329.91;1731095;82;20940;-46
2022/06/04 06:26:29;;;;;;;2.95;1.45;;;;;;;21.74;55.82;101336.76;1733223;82;22032;-46
2022/06/04 06:28:56;;;;;;;5.10;1.00;;;;;;;21.80;55.35;101340.38;1719805;82;20932;-46
2022/06/04 06:31:26;;;;;;;1.87;1.05;;;;;;;21.85;54.30;101327.81;1726903;82;21458;-46
2022/06/04 06:33:54;;;;;;;3.02;1.07;;;;;;;21.87;54.19;101336.97;1749802;82;20965;-47
2022/06/04 06:36:21;;;;;;;0.90;0.90;;;;;;;21.81;53.47;101328.91;1737958;81;20964;-47
2022/06/04 06:38:49;;;;;;;1.30;1.17;;;;;;;21.72;54.35;101328.05;1720236;82;21131;-47
2022/06/04 06:41:19;;;;;;;4.62;1.00;;;;;;;21.79;54.99;101318.44;1724792;82;20968;-47
2022/06/04 06:43:46;;;;;;;6.00;1.10;;;;;;;21.88;54.72;101316.27;1749938;82;20893;-45
2022/06/04 06:46:24;;;;;;;1.67;1.37;;;;;;;21.95;55.20;101317.64;1749796;82;20971;-46
2022/06/04 06:49:06;;;;;;;1.45;1.35;;;;;;;22.04;55.24;101319.78;1749908;81;20972;-45
2022/06/04 06:51:41;;;;;;;3.70;1.30;;;;;;;22.08;55.33;101306.81;1737887;82;21223;-45
2022/06/04 06:54:09;;;;;;;2.85;1.10;;;;;;;22.09;54.02;101315.11;1719360;82;20881;-45
2022/06/04 06:56:38;;;;;;;1.67;1.10;;;;;;;22.17;54.34;101317.81;1720049;83;21032;-45
2022/06/04 06:59:05;;;;;;;1.35;1.25;;;;;;;22.28;52.66;101315.44;1719954;83;20980;-45
2022/06/04 07:01:32;;;;;;;3.10;1.20;;;;;;;22.17;53.42;101320.45;1727756;82;20861;-46
2022/06/04 07:03:59;;;;;;;3.17;1.30;;;;;;;22.22;55.08;101316.61;1744031;82;21449;-47
2022/06/04 07:06:34;;;;;;;3.00;1.20;;;;;;;22.41;55.96;101322.69;1720233;82;20881;-46
2022/06/04 07:09:07;;;;;;;3.85;1.30;;;;;;;22.54;52.87;101315.82;1720266;82;20896;-46
2022/06/04 07:11:34;;;;;;;1.10;1.10;;;;;;;22.47;52.33;101314.47;1720075;83;20932;-46
2022/06/04 07:14:01;;;;;;;3.47;1.20;;;;;;;22.47;52.73;101317.94;1725167;82;21541;-46
2022/06/04 07:16:29;;;;;;;2.33;1.15;;;;;;;22.57;53.89;101314.81;1749466;82;21338;-45
2022/06/04 07:18:56;;;;;;;2.80;1.10;;;;;;;22.70;53.30;101317.12;1749934;82;21430;-45
2022/06/04 07:21:24;;;;;;;1.25;1.22;;;;;;;22.77;52.44;101306.63;1749906;82;20912;-45
2022/06/04 07:23:51;;;;;;;3.58;1.45;;;;;;;22.86;52.19;101306.58;1747446;82;21502;-45
2022/06/04 07:26:20;;;;;;;2.35;1.20;;;;;;;22.68;52.33;101311.95;1720112;83;21032;-46
2022/06/04 07:28:47;;;;;;;3.27;1.22;;;;;;;22.46;53.30;101314.05;1719836;83;21058;-46
2022/06/04 07:31:14;;;;;;;3.90;1.47;;;;;;;22.41;53.41;101316.10;1720852;82;20964;-45
2022/06/04 07:36:12;;;;;;;1.77;1.45;;;;;;;22.28;53.61;101310.64;1798299;79;22662;-45
2022/06/04 07:38:39;;;;;;;3.25;1.60;;;;;;;22.28;53.32;101313.28;1755953;80;20883;-46
2022/06/04 07:41:07;;;;;;;4.12;1.50;;;;;;;22.34;53.20;101309.82;1768945;80;20988;-46
2022/06/04 07:43:34;;;;;;;7.30;1.20;;;;;;;22.52;52.62;101307.14;1778781;80;20912;-45
2022/06/04 07:46:01;;;;;;;1.55;1.42;;;;;;;22.76;52.01;101303.61;1778923;80;20996;-46
2022/06/04 07:48:28;;;;;;;5.42;1.45;;;;;;;22.88;52.41;101311.30;1778969;80;20860;-45
2022/06/04 07:50:55;;;;;;;3.20;1.35;;;;;;;23.06;51.76;101310.70;1750958;80;21458;-45
2022/06/04 07:53:23;;;;;;;2.85;1.50;;;;;;;23.19;51.13;101293.67;1779162;80;21092;-45
2022/06/04 07:55:49;;;;;;;3.25;1.25;;;;;;;23.22;51.26;101294.81;1779054;80;20873;-44
2022/06/04 07:58:16;;;;;;;3.40;1.20;;;;;;;23.48;50.46;101299.05;1778572;80;20846;-46
2022/06/04 08:00:43;;;;;;;4.53;1.27;;;;;;;23.66;50.58;101288.33;1767391;80;20987;-46
2022/06/04 08:03:10;;;;;;;2.30;1.20;;;;;;;23.89;49.76;101297.96;1759504;80;20881;-46
2022/06/04 08:05:37;;;;;;;3.58;1.70;;;;;;;23.75;49.59;101289.07;1758164;81;21182;-46
2022/06/04 08:08:07;;;;;;;4.28;1.50;;;;;;;23.45;50.67;101294.41;1697350;81;22546;-45
2022/06/04 08:10:33;;;;;;;4.17;1.82;;;;;;;23.42;49.62;101294.14;1758150;81;21020;-46
2022/06/04 08:13:01;;;;;;;1.62;1.20;;;;;;;23.43;50.33;101293.20;1772321;80;20936;-46
2022/06/04 08:15:29;;;;;;;3.17;1.40;;;;;;;23.67;50.13;101286.89;1779047;80;20904;-46
2022/06/04 08:17:56;;;;;;;3.77;1.32;;;;;;;23.92;47.45;101292.48;1778963;80;21237;-45
2022/06/04 08:20:23;;;;;;;1.85;0.98;;;;;;;23.91;47.17;101291.62;1778943;80;20881;-45
2022/06/04 08:22:49;;;;;;;4.60;1.50;;;;;;;23.88;46.81;101288.33;1766738;80;21687;-45
2022/06/04 08:25:16;;;;;;;4.53;2.17;;;;;;;23.95;48.74;101283.87;1757981;81;21007;-46
2022/06/04 08:27:44;;;;;;;2.52;1.40;;;;;;;24.24;47.22;101288.31;1758099;81;20936;-46
2022/06/04 08:30:13;;;;;;;2.72;1.20;;;;;;;24.35;47.38;101284.50;1753656;81;21818;-46
2022/06/04 08:32:40;;;;;;;4.37;1.87;;;;;;;24.43;46.84;101275.25;1734173;81;21427;-47
2022/06/04 08:35:07;;;;;;;1.67;1.50;;;;;;;24.66;45.69;101279.89;1720250;83;20928;-46
2022/06/04 08:37:34;;;;;;;2.10;1.50;;;;;;;24.66;45.92;101267.98;1720890;83;20948;-47
2022/06/04 08:40:01;;;;;;;1.57;1.45;;;;;;;24.77;47.16;101264.67;1726352;82;21038;-47
2022/06/04 08:42:36;;;;;;;1.52;1.40;;;;;;;24.96;46.20;101254.16;1721458;82;21283;-45
2022/06/04 08:45:04;;;;;;;2.45;1.67;;;;;;;25.00;44.83;101245.05;1719988;83;20932;-45
2022/06/04 08:47:38;;;;;;;1.30;1.20;;;;;;;25.16;45.30;101254.16;1693589;83;20904;-46
2022/06/04 08:50:19;;;;;;;1.70;1.20;;;;;;;25.28;43.02;101249.83;1720014;83;20940;-46
2022/06/04 08:52:49;;;;;;;2.25;1.37;;;;;;;25.15;44.01;101251.14;1729713;82;20991;-46
2022/06/04 08:58:28;;;;;;;;;;;;;;;25.08;44.25;101240.56;1730818;82;21039;-46
2022/06/04 09:01:07;;;;;;;4.05;1.37;;;;;;;25.28;44.36;101242.34;1734834;82;20087;-48
2022/06/04 09:03:57;;;;;;;2.58;2.27;;;;;;;24.93;44.29;101240.66;1719664;82;20979;-49
2022/06/04 09:06:44;;;;;;;7.17;2.20;;;;;;;24.47;42.62;101234.41;1723164;82;20984;-47
2022/06/04 09:09:26;;;;;;;1.98;1.70;;;;;;;24.21;43.71;101236.45;1721051;82;21286;-47
2022/06/04 09:12:06;;;;;;;3.80;1.50;;;;;;;24.29;44.55;101237.29;1740630;82;20897;-45
2022/06/04 09:14:48;;;;;;;4.25;1.35;;;;;;;24.54;45.02;101234.38;1749785;82;20918;-46
2022/06/04 09:17:39;;;;;;;3.72;1.25;;;;;;;24.60;44.50;101231.31;1749546;81;20987;-47
2022/06/04 09:20:30;;;;;;;1.95;0.90;;;;;;;24.72;42.87;101236.28;1739947;82;20904;-47
2022/06/04 09:23:19;;;;;;;4.60;1.17;;;;;;;24.89;42.11;101229.91;1736677;82;21159;-45
2022/06/04 09:25:55;;;;;;;2.42;1.90;;;;;;;25.13;41.97;101223.87;1705358;83;20991;-47
2022/06/04 09:28:36;;;;;;;3.35;1.80;;;;;;;25.07;42.97;101217.22;1720555;82;20996;-47
2022/06/04 09:31:28;;;;;;;5.45;1.70;;;;;;;25.29;43.43;101209.13;1684020;82;21390;-47
2022/06/04 09:34:26;;;;;;;4.10;2.10;;;;;;;25.44;43.37;101217.81;1733350;82;20984;-47
2022/06/04 09:36:53;;;;;;;4.37;1.40;;;;;;;25.55;43.18;101211.80;1739549;82;21255;-46
2022/06/04 09:39:33;;;;;;;3.75;1.50;;;;;;;25.74;41.70;101215.31;1710524;82;21040;-46
2022/06/04 09:42:07;;;;;;;4.05;1.35;;;;;;;25.71;41.21;101204.94;1730041;82;21565;-48
2022/06/04 09:44:37;;;;;;;3.05;1.50;;;;;;;25.88;41.55;101205.51;1737377;82;21040;-47
2022/06/04 09:47:33;;;;;;;1.42;1.27;;;;;;;26.10;40.62;101194.21;1726877;81;20976;-47
2022/06/04 09:50:26;;;;;;;2.92;1.25;;;;;;;26.16;38.97;101187.16;1654730;86;22165;-47
2022/06/04 09:53:13;;;;;;;7.10;1.50;;;;;;;26.02;39.74;101194.77;1656104;86;20999;-47
2022/06/04 09:55:56;;;;;;;1.87;1.50;;;;;;;25.85;41.50;101195.12;1717288;82;20968;-46
2022/06/04 09:58:37;;;;;;;1.90;1.65;;;;;;;25.82;41.28;101198.37;1721972;82;20948;-47
2022/06/04 10:01:11;;;;;;;6.08;1.50;;;;;;;25.77;40.55;101195.20;1737641;82;20960;-45
2022/06/04 10:03:39;;;;;;;1.32;1.27;;;;;;;25.62;40.01;101190.52;1718522;83;21283;-47
2022/06/04 10:06:12;;;;;;;2.35;1.20;;;;;;;25.48;38.37;101193.29;1722785;82;21529;-46
2022/06/04 10:11:55;;;;;;;2.15;1.47;;;;;;;25.27;40.79;101183.23;1728740;82;20973;-47
2022/06/04 10:14:39;;;;;;;4.67;1.30;;;;;;;25.64;41.92;101174.49;1738684;81;21003;-48
2022/06/04 10:17:11;;;;;;;2.35;1.27;;;;;;;25.96;41.99;101168.20;1729850;82;21791;-46
2022/06/04 10:19:38;;;;;;;4.03;1.72;;;;;;;26.20;41.41;101171.38;1738344;82;21457;-47
2022/06/04 10:22:12;;;;;;;3.27;1.30;;;;;;;26.30;40.81;101170.72;1727866;82;20949;-47
2022/06/04 10:24:59;;;;;;;2.22;1.42;;;;;;;26.27;40.33;101168.27;1723506;82;20975;-47
2022/06/04 10:28:08;;;;;;;5.37;2.50;;;;;;;26.41;40.71;101167.27;1742659;82;20912;-47
2022/06/04 10:30:48;;;;;;;6.17;2.08;;;;;;;26.70;41.50;101155.76;1719505;82;21172;-47
2022/06/04 10:33:33;;;;;;;4.05;2.47;;;;;;;26.78;39.76;101151.20;1717417;83;21062;-46
2022/06/04 10:36:27;;;;;;;8.60;2.62;;;;;;;26.83;40.11;101152.55;1687718;83;21034;-47
2022/06/04 10:39:05;;;;;;;4.40;2.20;;;;;;;26.75;40.00;101163.38;1700428;83;20919;-46
2022/06/04 10:41:52;;;;;;;1.82;1.20;;;;;;;26.76;41.12;101162.42;1727917;81;20998;-47
2022/06/04 10:44:53;;;;;;;1.10;1.10;;;;;;;26.93;40.05;101154.05;1732938;81;21268;-48
2022/06/04 10:47:30;;;;;;;10.82;1.57;;;;;;;26.98;39.54;101158.98;1727636;81;20924;-48
2022/06/04 10:50:22;;;;;;;1.50;1.37;;;;;;;26.85;40.12;101159.08;1718026;81;20979;-47
2022/06/04 10:52:58;;;;;;;5.80;2.65;;;;;;;26.88;39.51;101157.51;1743467;81;21026;-48
2022/06/04 10:55:37;;;;;;;;;;;;;;;26.86;39.10;101157.28;1732109;81;21054;-48
2022/06/04 10:58:29;;;;;;;2.47;1.37;;;;;;;26.88;39.89;101155.35;1736929;81;20137;-48
2022/06/04 11:01:13;;;;;;;2.02;1.60;;;;;;;27.13;38.01;101145.48;1729815;81;21540;-48
2022/06/04 11:03:58;;;;;;;2.53;1.50;;;;;;;27.29;37.44;101152.63;1727547;83;21031;-48
2022/06/04 11:06:28;;;;;;;7.42;1.80;;;;;;;27.17;38.80;101141.62;1738485;81;20983;-47
2022/06/04 11:09:08;;;;;;;2.08;1.98;;;;;;;27.24;39.28;101142.81;1739800;81;21481;-47
2022/06/04 11:11:48;;;;;;;1.87;1.77;;;;;;;27.35;38.08;101140.17;1732383;81;21600;-47
2022/06/04 11:14:41;;;;;;;6.58;2.75;;;;;;;27.38;38.06;101136.41;1734791;81;20983;-47
2022/06/04 11:17:30;;;;;;;1.60;1.50;;;;;;;27.46;38.20;101130.02;1754442;81;20982;-47
2022/06/04 11:20:20;;;;;;;1.52;1.30;;;;;;;27.45;37.42;101129.66;1749537;81;21497;-48
2022/06/04 11:23:17;;;;;;;10.38;2.62;;;;;;;27.32;37.88;101128.93;1733287;81;20983;-46
2022/06/04 11:25:47;;;;;;;3.85;2.92;;;;;;;27.31;38.13;101126.77;1739178;81;22183;-46
2022/06/04 11:28:23;;;;;;;1.92;1.82;;;;;;;27.15;37.88;101127.11;1736730;81;20959;-49
2022/06/04 11:31:17;;;;;;;1.85;1.17;;;;;;;27.08;39.80;101122.78;1735669;81;20936;-46
2022/06/04 11:33:56;;;;;;;3.37;1.07;;;;;;;27.16;38.26;101120.86;1753821;81;20991;-46
2022/06/04 11:37:05;;;;;;;1.85;1.37;;;;;;;27.08;37.85;101123.25;1745449;81;21050;-47
2022/06/04 11:40:08;;;;;;;4.08;1.20;;;;;;;27.02;37.58;101114.45;1741758;82;21370;-47
2022/06/04 11:42:59;;;;;;;21.45;1.50;;;;;;;27.21;37.14;101112.51;1750026;81;20885;-47
2022/06/04 11:45:55;;;;;;;15.95;1.40;;;;;;;27.24;37.57;101120.23;1749990;82;21511;-47
2022/06/04 11:48:31;;;;;;;;;;;;;;;27.46;35.87;101112.74;1722475;83;20987;-46
2022/06/04 11:51:23;;;;;;;2.58;1.52;;;;;;;27.49;35.43;101113.82;1737865;82;20173;-46
2022/06/04 11:54:02;;;;;;;4.65;1.10;;;;;;;27.40;36.03;101113.21;1747367;82;22240;-46
2022/06/04 11:56:41;;;;;;;23.12;2.02;;;;;;;27.53;36.52;101111.30;1728424;81;20876;-47
2022/06/04 11:59:26;;;;;;;23.12;1.52;;;;;;;27.24;35.73;101111.80;1720987;82;20984;-46
2022/06/04 12:01:58;;;;;;;4.20;1.47;;;;;;;27.08;35.52;101108.64;1719745;82;21474;-47
2022/06/04 12:04:32;;;;;;;16.73;1.60;;;;;;;27.10;37.60;101114.68;1744905;82;20920;-47
2022/06/04 12:07:20;;;;;;;11.90;1.82;;;;;;;27.35;37.19;101108.28;1746581;80;21374;-47
2022/06/04 12:10:21;;;;;;;3.17;1.42;;;;;;;27.42;36.77;101104.66;1723965;82;21014;-47
2022/06/04 12:13:25;;;;;;;1.72;1.55;;;;;;;27.35;36.84;101104.77;1732517;82;20905;-47
2022/06/04 12:16:13;;;;;;;4.58;1.37;;;;;;;27.37;36.99;101092.20;1749982;82;20968;-46